createdAt,value
2017-10-25T00:00:19.489Z,10.60
2017-10-25T00:02:47.087Z,10.60
2017-10-25T00:05:14.724Z,10.60
2017-10-25T00:07:42.970Z,10.70
2017-10-25T00:10:10.557Z,10.70
2017-10-25T00:12:38.141Z,10.60
2017-10-25T00:15:05.773Z,10.70
2017-10-25T00:17:33.410Z,10.60
2017-10-25T00:20:01.026Z,10.60
2017-10-25T00:22:28.754Z,10.70
2017-10-25T00:24:57.146Z,10.70
2017-10-25T00:27:24.762Z,10.70
2017-10-25T00:29:52.419Z,10.70
2017-10-25T00:32:20.058Z,10.70
2017-10-25T00:34:47.646Z,10.70
2017-10-25T00:37:15.275Z,10.70
2017-10-25T00:39:42.951Z,10.70
2017-10-25T00:42:10.634Z,10.70
2017-10-25T00:44:38.294Z,10.70
2017-10-25T00:47:05.875Z,10.70
2017-10-25T00:49:33.511Z,10.70
2017-10-25T00:52:01.143Z,10.70
2017-10-25T00:54:29.082Z,10.70
2017-10-25T00:56:56.718Z,10.70
2017-10-25T00:59:24.373Z,10.70
2017-10-25T01:01:52.022Z,10.70
2017-10-25T01:04:19.639Z,10.70
2017-10-25T01:06:48.034Z,10.70
2017-10-25T01:09:15.615Z,10.70
2017-10-25T01:11:43.272Z,10.70
2017-10-25T01:14:10.855Z,10.70
2017-10-25T01:16:38.452Z,10.70
2017-10-25T01:19:06.813Z,10.70
2017-10-25T01:21:34.475Z,10.80
2017-10-25T01:24:02.098Z,10.80
2017-10-25T01:26:29.705Z,10.80
2017-10-25T01:28:57.340Z,10.80
2017-10-25T01:31:24.987Z,10.90
2017-10-25T01:33:52.714Z,10.90
2017-10-25T01:36:20.360Z,10.90
2017-10-25T01:38:47.998Z,10.90
2017-10-25T01:41:15.642Z,11.00
2017-10-25T01:43:43.239Z,11.00
2017-10-25T01:46:10.881Z,10.90
2017-10-25T01:48:38.534Z,10.90
2017-10-25T01:51:06.218Z,11.00
2017-10-25T01:53:33.855Z,11.00
2017-10-25T01:56:01.492Z,11.00
2017-10-25T01:58:29.162Z,10.90
2017-10-25T02:00:56.810Z,10.90
2017-10-25T02:03:24.422Z,10.90
2017-10-25T02:05:52.071Z,10.90
2017-10-25T02:08:20.349Z,10.90
2017-10-25T02:10:47.996Z,10.90
2017-10-25T02:13:15.626Z,10.90
2017-10-25T02:15:43.267Z,10.90
2017-10-25T02:18:10.906Z,10.90
2017-10-25T02:20:38.502Z,10.90
2017-10-25T02:23:06.138Z,10.90
2017-10-25T02:25:34.282Z,10.80
2017-10-25T02:28:01.925Z,10.90
2017-10-25T02:30:29.551Z,10.90
2017-10-25T02:32:57.950Z,10.80
2017-10-25T02:35:25.550Z,10.80
2017-10-25T02:37:53.205Z,10.80
2017-10-25T02:40:20.821Z,10.80
2017-10-25T02:42:48.410Z,10.80
2017-10-25T02:45:16.001Z,10.90
2017-10-25T02:47:43.630Z,10.90
2017-10-25T02:50:11.270Z,10.90
2017-10-25T02:52:38.892Z,10.90
2017-10-25T02:55:08.866Z,10.90
2017-10-25T02:57:36.491Z,10.90
2017-10-25T03:00:04.890Z,10.90
2017-10-25T03:02:34.746Z,10.90
2017-10-25T03:05:02.996Z,11.00
2017-10-25T03:07:31.193Z,11.00
2017-10-25T03:09:59.662Z,11.00
2017-10-25T03:12:27.851Z,11.00
2017-10-25T03:14:56.014Z,11.00
2017-10-25T03:17:24.283Z,11.00
2017-10-25T03:19:52.552Z,11.00
2017-10-25T03:22:20.933Z,11.00
2017-10-25T03:24:49.027Z,10.90
2017-10-25T03:27:17.245Z,10.90
2017-10-25T03:29:45.846Z,10.90
2017-10-25T03:32:14.109Z,11.00
2017-10-25T03:34:42.344Z,10.90
2017-10-25T03:37:10.811Z,10.90
2017-10-25T03:39:41.755Z,10.90
2017-10-25T03:42:09.977Z,10.90
2017-10-25T03:44:39.800Z,10.90
2017-10-25T03:47:08.206Z,10.90
2017-10-25T03:49:41.837Z,10.90
2017-10-25T03:52:10.167Z,10.90
2017-10-25T03:54:41.376Z,10.90
2017-10-25T03:57:09.842Z,10.90
2017-10-25T03:59:46.718Z,10.90
2017-10-25T04:02:15.048Z,10.90
2017-10-25T04:04:43.509Z,10.90
2017-10-25T04:07:12.694Z,10.90
2017-10-25T04:09:41.154Z,10.90
2017-10-25T04:12:09.838Z,10.90
2017-10-25T04:14:39.183Z,10.90
2017-10-25T04:17:07.543Z,10.90
2017-10-25T04:19:38.815Z,10.90
2017-10-25T04:22:08.266Z,10.90
2017-10-25T04:24:36.095Z,10.90
2017-10-25T04:30:00.806Z,10.90
2017-10-25T04:32:29.310Z,10.90
2017-10-25T04:34:57.913Z,10.80
2017-10-25T04:37:26.333Z,10.90
2017-10-25T04:39:55.880Z,10.80
2017-10-25T04:42:25.098Z,10.80
2017-10-25T04:44:55.529Z,10.80
2017-10-25T04:47:24.138Z,10.80
2017-10-25T04:49:52.385Z,10.80
2017-10-25T04:52:20.622Z,10.80
2017-10-25T04:54:48.834Z,10.80
2017-10-25T04:57:18.114Z,10.80
2017-10-25T04:59:48.310Z,10.80
2017-10-25T05:02:16.480Z,10.80
2017-10-25T05:04:44.634Z,10.80
2017-10-25T05:07:12.983Z,10.80
2017-10-25T05:09:42.292Z,10.80
2017-10-25T05:12:11.421Z,10.80
2017-10-25T05:14:39.939Z,10.80
2017-10-25T05:17:08.549Z,10.80
2017-10-25T05:19:37.777Z,10.80
2017-10-25T05:22:08.361Z,10.80
2017-10-25T05:29:50.898Z,10.80
2017-10-25T05:32:21.427Z,10.80
2017-10-25T05:34:50.098Z,10.80
2017-10-25T05:37:19.596Z,10.80
2017-10-25T05:39:48.175Z,10.80
2017-10-25T05:42:17.459Z,10.90
2017-10-25T05:44:47.013Z,10.90
2017-10-25T05:47:15.743Z,10.90
2017-10-25T05:49:54.514Z,10.90
2017-10-25T05:52:23.661Z,10.90
2017-10-25T05:54:54.962Z,10.90
2017-10-25T05:57:24.005Z,11.00
2017-10-25T05:59:53.060Z,11.00
2017-10-25T06:02:21.614Z,10.90
2017-10-25T06:04:50.376Z,11.00
2017-10-25T06:07:18.856Z,11.00
2017-10-25T06:09:47.441Z,11.00
2017-10-25T06:12:16.979Z,11.00
2017-10-25T06:14:45.960Z,11.00
2017-10-25T06:17:14.702Z,11.00
2017-10-25T06:19:43.953Z,11.00
2017-10-25T06:22:12.350Z,11.00
2017-10-25T06:24:41.036Z,11.00
2017-10-25T06:27:11.244Z,11.10
2017-10-25T06:29:39.826Z,11.10
2017-10-25T06:32:08.456Z,11.10
2017-10-25T06:34:36.734Z,11.10
2017-10-25T06:37:05.289Z,11.10
2017-10-25T06:39:35.952Z,11.10
2017-10-25T06:42:04.483Z,11.20
2017-10-25T06:44:32.783Z,11.20
2017-10-25T06:47:01.145Z,11.20
2017-10-25T06:49:30.131Z,11.20
2017-10-25T06:51:58.300Z,11.30
2017-10-25T06:54:28.093Z,11.30
2017-10-25T06:56:57.049Z,11.30
2017-10-25T06:59:26.051Z,11.30
2017-10-25T07:01:57.055Z,11.40
2017-10-25T07:04:29.901Z,11.40
2017-10-25T07:06:59.377Z,11.40
2017-10-25T07:09:28.370Z,11.40
2017-10-25T07:11:57.089Z,11.30
2017-10-25T07:14:25.542Z,11.30
2017-10-25T07:16:54.020Z,11.40
2017-10-25T07:19:22.837Z,11.40
2017-10-25T07:21:51.291Z,11.40
2017-10-25T07:24:19.958Z,11.40
2017-10-25T07:26:49.138Z,11.40
2017-10-25T07:29:17.590Z,11.40
2017-10-25T07:31:45.982Z,11.40
2017-10-25T07:34:14.481Z,11.40
2017-10-25T07:36:42.837Z,11.40
2017-10-25T07:39:11.231Z,11.50
2017-10-25T07:41:39.636Z,11.50
2017-10-25T07:44:08.203Z,11.60
2017-10-25T07:46:36.528Z,11.70
2017-10-25T07:49:05.049Z,11.70
2017-10-25T07:51:33.812Z,11.80
2017-10-25T07:54:02.424Z,11.80
2017-10-25T07:56:30.826Z,11.90
2017-10-25T07:58:59.174Z,12.00
2017-10-25T08:01:27.649Z,12.00
2017-10-25T08:03:57.904Z,12.10
2017-10-25T08:06:27.488Z,12.10
2017-10-25T08:08:55.780Z,12.20
2017-10-25T08:11:26.753Z,12.30
2017-10-25T08:13:55.289Z,12.30
2017-10-25T08:16:26.277Z,12.30
2017-10-25T08:18:54.863Z,12.40
2017-10-25T08:21:25.465Z,12.40
2017-10-25T08:23:54.331Z,12.40
2017-10-25T08:26:22.914Z,12.50
2017-10-25T08:28:51.764Z,12.50
2017-10-25T08:31:20.949Z,12.60
2017-10-25T08:33:49.291Z,12.60
2017-10-25T08:36:17.513Z,12.70
2017-10-25T08:38:47.022Z,12.80
2017-10-25T08:41:17.136Z,12.80
2017-10-25T08:43:45.772Z,12.80
2017-10-25T08:46:14.104Z,12.80
2017-10-25T08:48:42.560Z,12.80
2017-10-25T08:51:10.881Z,12.80
2017-10-25T08:53:39.698Z,12.80
2017-10-25T08:56:09.121Z,12.80
2017-10-25T08:58:37.862Z,12.80
2017-10-25T09:01:08.450Z,12.80
2017-10-25T09:03:37.228Z,12.80
2017-10-25T09:06:05.659Z,12.90
2017-10-25T09:08:34.403Z,12.90
2017-10-25T09:11:03.699Z,12.90
2017-10-25T09:13:32.287Z,13.00
2017-10-25T09:16:00.844Z,13.10
2017-10-25T09:18:29.104Z,13.10
2017-10-25T09:20:57.394Z,13.10
2017-10-25T09:23:26.642Z,13.10
2017-10-25T09:25:55.021Z,13.10
2017-10-25T09:28:23.889Z,13.10
2017-10-25T09:30:52.425Z,13.20
2017-10-25T09:33:21.029Z,13.20
2017-10-25T09:35:50.571Z,13.20
2017-10-25T09:38:19.457Z,13.20
2017-10-25T09:40:47.856Z,13.30
2017-10-25T09:43:17.494Z,13.20
2017-10-25T09:45:45.843Z,13.20
2017-10-25T09:48:14.392Z,13.20
2017-10-25T09:50:42.753Z,13.20
2017-10-25T09:53:11.160Z,13.20
2017-10-25T09:55:39.710Z,13.30
2017-10-25T09:58:08.287Z,13.30
2017-10-25T10:00:36.464Z,13.30
2017-10-25T10:03:04.806Z,13.30
2017-10-25T10:05:33.158Z,13.40
2017-10-25T10:08:01.516Z,13.40
2017-10-25T10:10:29.838Z,13.40
2017-10-25T10:12:58.168Z,13.40
2017-10-25T10:15:26.752Z,13.40
2017-10-25T10:17:55.449Z,13.40
2017-10-25T10:20:23.844Z,13.50
2017-10-25T10:22:52.087Z,13.50
2017-10-25T10:25:21.499Z,13.50
2017-10-25T10:27:49.624Z,13.60
2017-10-25T10:30:18.347Z,13.70
2017-10-25T10:32:46.965Z,13.70
2017-10-25T10:35:16.321Z,13.80
2017-10-25T10:37:44.604Z,13.90
2017-10-25T10:40:13.940Z,13.90
2017-10-25T10:42:42.348Z,13.90
2017-10-25T10:45:10.758Z,14.00
2017-10-25T10:47:39.955Z,14.10
2017-10-25T10:50:08.141Z,14.20
2017-10-25T10:52:37.159Z,14.40
2017-10-25T10:55:06.865Z,14.50
2017-10-25T10:57:35.111Z,14.60
2017-10-25T11:00:05.103Z,14.70
2017-10-25T11:02:33.427Z,14.60
2017-10-25T11:05:02.660Z,14.70
2017-10-25T11:07:31.057Z,14.60
2017-10-25T11:09:59.972Z,14.60
2017-10-25T11:12:28.939Z,14.70
2017-10-25T11:14:57.315Z,14.60
2017-10-25T11:17:25.795Z,14.60
2017-10-25T11:19:54.116Z,14.70
2017-10-25T11:22:22.529Z,14.70
2017-10-25T11:24:50.732Z,14.70
2017-10-25T11:27:18.785Z,14.70
2017-10-25T11:29:47.810Z,14.70
2017-10-25T11:32:16.966Z,14.70
2017-10-25T11:34:45.801Z,14.70
2017-10-25T11:37:13.473Z,14.70
2017-10-25T11:39:41.366Z,14.70
2017-10-25T11:42:09.751Z,14.70
2017-10-25T11:44:38.138Z,14.60
2017-10-25T11:47:05.837Z,14.60
2017-10-25T11:49:33.502Z,14.60
2017-10-25T11:52:01.118Z,14.60
2017-10-25T11:54:29.656Z,14.60
2017-10-25T11:56:57.279Z,14.60
2017-10-25T11:59:25.726Z,14.60
2017-10-25T12:01:53.435Z,14.70
2017-10-25T12:04:21.059Z,14.70
2017-10-25T12:06:49.447Z,14.80
2017-10-25T12:09:17.834Z,14.80
2017-10-25T12:11:45.455Z,14.80
2017-10-25T12:14:13.086Z,14.80
2017-10-25T12:16:40.720Z,14.80
2017-10-25T12:19:08.340Z,14.80
2017-10-25T12:21:35.961Z,14.80
2017-10-25T12:24:03.576Z,14.80
2017-10-25T12:26:31.956Z,14.90
2017-10-25T12:28:59.598Z,14.90
2017-10-25T12:31:27.996Z,14.90
2017-10-25T12:33:55.617Z,14.90
2017-10-25T12:36:23.225Z,14.90
2017-10-25T12:38:51.609Z,14.90
2017-10-25T12:41:20.023Z,14.90
2017-10-25T12:43:47.622Z,14.90
2017-10-25T12:46:15.307Z,14.80
2017-10-25T12:48:43.689Z,14.70
2017-10-25T12:51:12.062Z,14.70
2017-10-25T12:53:40.466Z,14.80
2017-10-25T12:56:08.091Z,14.80
2017-10-25T12:58:35.709Z,14.80
2017-10-25T13:01:03.328Z,14.80
2017-10-25T13:03:31.710Z,14.80
2017-10-25T13:06:00.088Z,14.80
2017-10-25T13:08:28.472Z,14.80
2017-10-25T13:14:38.767Z,14.80
2017-10-25T13:17:22.538Z,14.70
2017-10-25T13:19:50.159Z,14.70
2017-10-25T13:22:17.746Z,14.70
2017-10-25T13:24:45.430Z,14.70
2017-10-25T13:27:13.016Z,14.70
2017-10-25T13:29:40.626Z,14.70
2017-10-25T13:32:08.239Z,14.70
2017-10-25T13:34:35.813Z,14.70
2017-10-25T13:37:03.399Z,14.70
2017-10-25T13:39:30.952Z,14.70
2017-10-25T13:41:58.534Z,14.70
2017-10-25T13:44:26.115Z,14.80
2017-10-25T13:46:53.780Z,14.80
2017-10-25T13:49:21.407Z,14.90
2017-10-25T13:51:49.024Z,14.90
2017-10-25T13:54:16.606Z,15.00
2017-10-25T13:56:44.231Z,15.00
2017-10-25T13:59:11.856Z,15.00
2017-10-25T14:01:40.414Z,15.10
2017-10-25T14:04:08.039Z,15.10
2017-10-25T14:06:35.659Z,15.10
2017-10-25T14:09:03.301Z,15.10
2017-10-25T14:11:30.918Z,15.20
2017-10-25T14:13:58.619Z,15.20
2017-10-25T14:16:26.961Z,15.10
2017-10-25T14:18:54.584Z,15.10
2017-10-25T14:21:22.223Z,15.10
2017-10-25T14:23:50.602Z,15.00
2017-10-25T14:26:30.014Z,15.00
2017-10-25T14:28:57.705Z,15.00
2017-10-25T14:31:25.335Z,14.90
2017-10-25T14:33:52.916Z,14.90
2017-10-25T14:36:20.536Z,14.80
2017-10-25T14:38:48.155Z,14.80
2017-10-25T14:41:15.752Z,14.70
2017-10-25T14:43:43.320Z,14.60
2017-10-25T14:46:10.990Z,14.60
2017-10-25T14:48:38.951Z,14.50
2017-10-25T14:51:06.589Z,14.40
2017-10-25T14:53:34.276Z,14.40
2017-10-25T14:56:01.948Z,14.40
2017-10-25T14:58:29.553Z,14.40
2017-10-25T15:00:57.159Z,14.30
2017-10-25T15:03:25.407Z,14.30
2017-10-25T15:05:53.019Z,14.20
2017-10-25T15:08:20.802Z,14.20
2017-10-25T15:10:49.144Z,14.10
2017-10-25T15:13:16.799Z,14.10
2017-10-25T15:15:44.662Z,14.10
2017-10-25T15:18:12.527Z,14.00
2017-10-25T15:20:40.166Z,14.00
2017-10-25T15:23:07.845Z,14.00
2017-10-25T15:25:36.382Z,14.00
2017-10-25T15:28:04.820Z,13.90
2017-10-25T15:30:32.435Z,13.90
2017-10-25T15:33:00.014Z,13.90
2017-10-25T15:35:27.647Z,13.90
2017-10-25T15:37:56.030Z,13.90
2017-10-25T15:40:23.876Z,13.80
2017-10-25T15:42:51.453Z,13.90
2017-10-25T15:45:20.127Z,13.80
2017-10-25T15:47:47.707Z,13.80
2017-10-25T15:50:16.491Z,13.80
2017-10-25T15:52:45.244Z,13.70
2017-10-25T15:55:12.946Z,13.70
2017-10-25T15:57:41.285Z,13.70
2017-10-25T16:00:08.903Z,13.70
2017-10-25T16:02:36.527Z,13.70
2017-10-25T16:05:04.184Z,13.70
2017-10-25T16:07:31.726Z,13.70
2017-10-25T16:09:59.303Z,13.70
2017-10-25T16:12:26.897Z,13.70
2017-10-25T16:14:54.514Z,13.80
2017-10-25T16:17:22.086Z,13.80
2017-10-25T16:19:49.702Z,13.70
2017-10-25T16:22:17.314Z,13.70
2017-10-25T16:24:44.891Z,13.60
2017-10-25T16:27:12.556Z,13.50
2017-10-25T16:29:40.200Z,13.50
2017-10-25T16:32:09.055Z,13.50
2017-10-25T16:34:36.713Z,13.40
2017-10-25T16:37:04.390Z,13.40
2017-10-25T16:39:32.167Z,13.40
2017-10-25T16:41:59.780Z,13.40
2017-10-25T16:44:27.324Z,13.30
2017-10-25T16:46:57.943Z,13.30
2017-10-25T16:49:26.147Z,13.30
2017-10-25T16:51:53.759Z,13.20
2017-10-25T16:54:21.394Z,13.30
2017-10-25T16:56:49.006Z,13.30
2017-10-25T16:59:16.662Z,13.30
2017-10-25T17:01:44.278Z,13.40
2017-10-25T17:04:11.906Z,13.40
2017-10-25T17:06:39.505Z,13.40
2017-10-25T17:09:07.167Z,13.50
2017-10-25T17:11:34.873Z,13.50
2017-10-25T17:14:03.225Z,13.60
2017-10-25T17:16:30.803Z,13.60
2017-10-25T17:19:05.343Z,13.60
2017-10-25T17:21:32.934Z,13.60
2017-10-25T17:24:02.007Z,13.60
2017-10-25T17:26:29.678Z,13.60
2017-10-25T17:28:57.370Z,13.60
2017-10-25T17:31:25.007Z,13.60
2017-10-25T17:33:52.625Z,13.60
2017-10-25T17:36:20.275Z,13.50
2017-10-25T17:38:47.879Z,13.50
2017-10-25T17:41:15.542Z,13.50
2017-10-25T17:43:43.130Z,13.40
2017-10-25T17:46:10.749Z,13.40
2017-10-25T17:48:38.374Z,13.40
2017-10-25T17:51:05.986Z,13.40
2017-10-25T17:53:33.650Z,13.40
2017-10-25T17:56:01.270Z,13.40
2017-10-25T17:58:28.878Z,13.40
2017-10-25T18:00:56.466Z,13.40
2017-10-25T18:03:24.046Z,13.40
2017-10-25T18:05:51.659Z,13.40
2017-10-25T18:08:19.830Z,13.50
2017-10-25T18:10:47.401Z,13.50
2017-10-25T18:13:15.034Z,13.50
2017-10-25T18:15:42.651Z,13.50
2017-10-25T18:18:10.266Z,13.50
2017-10-25T18:20:37.882Z,13.60
2017-10-25T18:23:05.501Z,13.60
2017-10-25T18:25:33.110Z,13.60
2017-10-25T18:28:00.640Z,13.60
2017-10-25T18:30:28.250Z,13.60
2017-10-25T18:32:56.625Z,13.60
2017-10-25T18:35:24.240Z,13.60
2017-10-25T18:37:51.885Z,13.60
2017-10-25T18:40:19.524Z,13.70
2017-10-25T18:42:47.145Z,13.60
2017-10-25T18:45:14.758Z,13.70
2017-10-25T18:47:42.327Z,13.60
2017-10-25T18:50:09.940Z,13.70
2017-10-25T18:52:37.552Z,13.70
2017-10-25T18:55:05.167Z,13.70
2017-10-25T18:57:32.782Z,13.70
2017-10-25T19:00:00.394Z,13.70
2017-10-25T19:02:28.002Z,13.70
2017-10-25T19:04:55.663Z,13.60
2017-10-25T19:07:23.486Z,13.70
2017-10-25T19:09:51.829Z,13.60
2017-10-25T19:12:19.435Z,13.60
2017-10-25T19:14:47.046Z,13.60
2017-10-25T19:17:14.670Z,13.60
2017-10-25T19:19:42.372Z,13.60
2017-10-25T19:22:10.116Z,13.60
2017-10-25T19:24:37.693Z,13.60
2017-10-25T19:27:05.337Z,13.70
2017-10-25T19:29:32.962Z,13.70
2017-10-25T19:32:01.478Z,13.70
2017-10-25T19:34:29.086Z,13.70
2017-10-25T19:36:57.214Z,13.70
2017-10-25T19:39:25.049Z,13.60
2017-10-25T19:41:54.104Z,13.50
2017-10-25T19:44:22.023Z,13.50
2017-10-25T19:46:50.406Z,13.40
2017-10-25T19:49:20.095Z,13.40
2017-10-25T19:51:48.479Z,13.30
2017-10-25T19:54:16.869Z,13.30
2017-10-25T19:56:45.306Z,13.30
2017-10-25T19:59:12.918Z,13.30
2017-10-25T20:01:40.494Z,13.30
2017-10-25T20:04:08.073Z,13.20
2017-10-25T20:06:35.658Z,13.20
2017-10-25T20:09:03.260Z,13.10
2017-10-25T20:11:30.845Z,13.10
2017-10-25T20:13:58.458Z,13.10
2017-10-25T20:16:26.032Z,13.00
2017-10-25T20:18:53.661Z,13.00
2017-10-25T20:21:21.283Z,12.90
2017-10-25T20:23:48.961Z,12.90
2017-10-25T20:26:16.571Z,12.90
2017-10-25T20:28:44.959Z,12.80
2017-10-25T20:31:13.353Z,12.80
2017-10-25T20:33:40.962Z,12.80
2017-10-25T20:36:08.580Z,12.80
2017-10-25T20:38:36.153Z,12.70
2017-10-25T20:41:03.762Z,12.70
2017-10-25T20:43:31.592Z,12.70
2017-10-25T20:45:59.254Z,12.70
2017-10-25T20:48:26.867Z,12.70
2017-10-25T20:50:54.480Z,12.70
2017-10-25T20:53:22.119Z,12.70
2017-10-25T20:55:49.734Z,12.70
2017-10-25T20:58:17.346Z,12.60
2017-10-25T21:00:44.959Z,12.60
2017-10-25T21:03:12.590Z,12.60
2017-10-25T21:05:40.206Z,12.60
2017-10-25T21:08:07.792Z,12.60
2017-10-25T21:10:35.412Z,12.50
2017-10-25T21:13:03.797Z,12.50
2017-10-25T21:15:32.132Z,12.50
2017-10-25T21:17:59.707Z,12.50
2017-10-25T21:20:27.318Z,12.60
2017-10-25T21:22:54.942Z,12.60
2017-10-25T21:25:22.554Z,12.60
2017-10-25T21:27:50.173Z,12.60
2017-10-25T21:30:17.830Z,12.60
2017-10-25T21:32:46.223Z,12.60
2017-10-25T21:35:14.598Z,12.60
2017-10-25T21:37:43.014Z,12.60
2017-10-25T21:40:10.639Z,12.60
2017-10-25T21:42:38.248Z,12.60
2017-10-25T21:45:05.863Z,12.50
2017-10-25T21:47:33.474Z,12.50
2017-10-25T21:50:01.091Z,12.60
2017-10-25T21:52:28.706Z,12.60
2017-10-25T21:54:56.457Z,12.50
2017-10-25T21:57:24.073Z,12.50
2017-10-25T21:59:51.692Z,12.50
2017-10-25T22:02:19.312Z,12.60
2017-10-25T22:04:46.987Z,12.60
2017-10-25T22:07:14.602Z,12.60
2017-10-25T22:09:42.159Z,12.60
2017-10-25T22:12:09.724Z,12.60
2017-10-25T22:14:37.328Z,12.50
2017-10-25T22:17:04.925Z,12.50
2017-10-25T22:19:32.519Z,12.50
2017-10-25T22:22:00.889Z,12.50
2017-10-25T22:24:29.251Z,12.50
2017-10-25T22:26:56.855Z,12.50
2017-10-25T22:29:24.459Z,12.50
2017-10-25T22:31:52.059Z,12.50
2017-10-25T22:34:19.665Z,12.50
2017-10-25T22:36:47.739Z,12.50
2017-10-25T22:39:15.334Z,12.50
2017-10-25T22:41:42.939Z,12.50
2017-10-25T22:44:10.498Z,12.50
2017-10-25T22:46:38.073Z,12.50
2017-10-25T22:49:05.632Z,12.40
2017-10-25T22:51:33.236Z,12.40
2017-10-25T22:54:00.833Z,12.30
2017-10-25T22:56:28.430Z,12.30
2017-10-25T22:58:56.027Z,12.20
2017-10-25T23:01:23.628Z,12.20
2017-10-25T23:03:51.274Z,12.20
2017-10-25T23:06:18.872Z,12.10
2017-10-25T23:08:46.468Z,12.10
2017-10-25T23:11:14.079Z,12.00
2017-10-25T23:13:41.671Z,12.00
2017-10-25T23:16:09.274Z,12.00
2017-10-25T23:18:36.876Z,12.00
2017-10-25T23:21:04.475Z,12.00
2017-10-25T23:23:32.799Z,12.00
2017-10-25T23:26:00.395Z,12.00
2017-10-25T23:28:27.956Z,12.00
2017-10-25T23:30:55.557Z,11.90
2017-10-25T23:33:23.124Z,11.90
2017-10-25T23:35:50.720Z,11.90
2017-10-25T23:38:18.321Z,11.90
2017-10-25T23:40:45.918Z,11.80
2017-10-25T23:43:13.517Z,11.80
2017-10-25T23:45:41.145Z,11.80
2017-10-25T23:48:08.706Z,11.70
2017-10-25T23:50:36.304Z,11.70
2017-10-25T23:53:03.865Z,11.60
2017-10-25T23:55:31.506Z,11.70
2017-10-25T23:57:59.108Z,11.60
